ARDEC Weather Station

Colorado State Home Page USDA/ARS Home Page



Station:CSU - ARDEC
Location:6 mi NE Fort Collins
Elevation:5110
Longitude:105
Latitude:40.6525

ARDEC 5 Minute Data
Date Time Temp RelHum Dewpt Vapor Solar Wind Spd Wind Dir Precip 5 Soil 15 Soil Gust Spd Gust Tim Gust Dir Battery
MST °F %°Fmb ly/min mph °in. °F °F mphMST ° volts
2014-04-2403:00 37.7 34.3 12.0 2.63 0.00 8.0 358 0.00 51.7 54.2 10.7 03:00 345 11.49
2014-04-2402:55 37.8 34.1 12.0 2.62 0.00 8.2 355 0.00 51.8 54.2 10.1 02:52 342 11.49
2014-04-2402:50 38.2 33.7 12.1 2.63 0.00 7.8 351 0.00 51.8 54.2 9.4 02:45 346 11.49
2014-04-2402:45 38.7 34.0 12.8 2.71 0.00 9.3 355 0.00 51.9 54.3 12.4 02:40 354 11.50
2014-04-2402:40 39.0 33.1 12.4 2.67 0.00 9.2 349 0.00 52.0 54.3 11.8 02:36 323 11.50
2014-04-2402:35 39.6 32.6 12.6 2.70 0.00 9.1 338 0.00 52.0 54.4 13.3 02:31 327 11.49
2014-04-2402:30 39.7 32.4 12.5 2.69 0.00 9.4 335 0.00 52.1 54.4 14.6 02:26 336 11.50
2014-04-2402:25 39.4 33.0 12.7 2.71 0.00 8.1 337 0.00 52.1 54.4 11.3 02:21 332 11.49
2014-04-2402:20 39.7 31.9 12.2 2.64 0.00 8.9 333 0.00 52.2 54.5 13.7 02:16 0 11.49
2014-04-2402:15 39.6 32.2 12.3 2.65 0.00 8.1 331 0.00 52.2 54.5 11.8 02:12 344 11.49
2014-04-2402:10 39.6 31.8 12.0 2.63 0.00 8.2 332 0.00 52.3 54.5 12.7 02:09 340 11.50
2014-04-2402:05 39.8 31.3 11.9 2.61 0.00 7.3 331 0.00 52.4 54.6 9.7 02:03 326 11.50
2014-04-2402:00 40.0 30.5 11.5 2.57 0.00 9.1 325 0.00 52.4 54.6 11.3 01:59 328 11.49
2014-04-2401:55 40.1 30.4 11.4 2.56 0.00 8.9 328 0.00 52.5 54.6 11.9 01:53 349 11.50
2014-04-2401:50 39.8 30.4 11.2 2.53 0.00 9.6 323 0.00 52.6 54.7 15.0 01:46 317 11.50
2014-04-2401:45 39.5 30.6 11.0 2.52 0.00 8.6 329 0.00 52.6 54.7 12.1 01:40 345 11.50
2014-04-2401:40 39.2 31.1 11.1 2.53 0.00 6.9 334 0.00 52.7 54.7 9.7 01:36 316 11.50
2014-04-2401:35 39.1 31.2 11.1 2.52 0.00 7.2 325 0.00 52.8 54.8 9.2 01:33 327 11.50
2014-04-2401:30 39.5 31.1 11.4 2.55 0.00 6.3 328 0.00 52.8 54.8 8.9 01:28 317 11.50
2014-04-2401:25 39.8 30.2 11.1 2.52 0.00 8.0 329 0.00 52.9 54.8 11.1 01:22 320 11.50
2014-04-2401:20 39.5 30.1 10.7 2.48 0.00 6.5 327 0.00 53.0 54.9 8.4 01:20 332 11.50
2014-04-2401:15 39.6 29.9 10.6 2.47 0.00 6.9 332 0.00 53.0 54.9 9.1 01:13 311 11.51
2014-04-2401:10 39.9 30.0 11.0 2.51 0.00 7.1 326 0.00 53.1 54.9 8.8 01:08 314 11.51
2014-04-2401:05 40.4 28.7 10.4 2.45 0.00 8.7 329 0.00 53.2 55.0 12.1 01:02 325 11.50
2014-04-2401:00 40.8 27.5 9.8 2.38 0.00 9.4 329 0.00 53.2 55.0 12.7 00:55 332 11.50

 


Plots for last week.

ARDEC Home


DISCLAIMER

Authorized use of this data is limited to the academic, administrative, research Colorado State University and its Cooperative and Extension facilities. Use is NOT authorized for operational or commercial purposes. The data are provided "as is", and in no event shall the providers be liable for any damage or loss due to missing data or misinterpretation of its content.

 


Return to the CoAgMet Homepage.